Trescott Township, Maine
Current Conditions -  °F | °C
As of 10:15 AM on Wednesday 22 Oct 2014 (Local Time) from KBHB Reporting Station
Overcast Overcast  
Wind Chill: 50°   Ceiling: 5500
Heat Index: 50°   Visibility: 10mi
Dew Point: 48°   Wind: 14mph
Humidity: 94%   Direction: 30°NNE
Pressure: 30.16"   Gusts: 22mph
Location:  44.7971°N, 67.1163°W
Report Text: KBHB 221415Z AUTO 03012G19KT 10SM FEW015 SCT047 OVC055 10/09 A3016 RMK AO1
Loading
Personal Weather Stations






























Interactive Weather Map
Tropical Storm Tracking
New forecast layout! Learn more

10-Day Weather Forecast

Advertisements
Track Severe Weather on mobile